Time;durP1;ratioP1;P1;durP2;ratioP2;P2;SDS_P1;SDS_P2;PMS_P1;PMS_P2;Temp;Humidity;BMP_temperature;BMP_pressure;BME280_temperature;BME280_humidity;BME280_pressure;Samples;Min_cycle;Max_cycle;Signal;HPM_P1;HPM_P2
2023/07/17 00:00:20;;;;;;;4.68;3.20;;;;;;;17.43;95.13;98707.53;4137588;28;20224;-46
2023/07/17 00:02:22;;;;;;;5.95;3.80;;;;;;;17.32;94.95;98714.25;4139779;28;20590;-46
2023/07/17 00:04:24;;;;;;;4.05;3.42;;;;;;;17.30;95.25;98709.00;4150355;28;20237;-46
2023/07/17 00:06:26;;;;;;;4.82;3.65;;;;;;;17.30;94.93;98719.25;4138157;28;20210;-45
2023/07/17 00:08:27;;;;;;;5.10;3.25;;;;;;;17.28;94.77;98713.19;4137590;28;20280;-46
2023/07/17 00:10:29;;;;;;;4.13;3.70;;;;;;;17.30;95.61;98710.94;4136708;28;20749;-45
2023/07/17 00:12:31;;;;;;;6.25;3.63;;;;;;;17.24;95.73;98710.16;4134671;28;20253;-45
2023/07/17 00:14:33;;;;;;;4.60;3.58;;;;;;;17.18;95.57;98710.50;4136253;28;20271;-45
2023/07/17 00:16:35;;;;;;;5.05;3.95;;;;;;;17.24;96.02;98709.31;4151813;28;20231;-46
2023/07/17 00:18:37;;;;;;;4.80;3.67;;;;;;;17.20;96.22;98709.06;4143555;28;20247;-46
2023/07/17 00:20:39;;;;;;;3.30;3.00;;;;;;;17.15;96.51;98711.06;4144129;28;20213;-46
2023/07/17 00:22:41;;;;;;;3.08;2.78;;;;;;;17.08;95.87;98710.56;4138691;28;20213;-46
2023/07/17 00:24:42;;;;;;;4.40;4.00;;;;;;;17.11;96.08;98710.81;4144753;28;20244;-46
2023/07/17 00:26:44;;;;;;;3.13;2.75;;;;;;;17.08;96.36;98710.56;4137488;28;20236;-46
2023/07/17 00:28:46;;;;;;;3.95;3.65;;;;;;;17.03;96.03;98713.34;4138104;28;20229;-46
2023/07/17 00:30:48;;;;;;;10.85;4.05;;;;;;;17.11;96.63;98710.00;4154661;28;20279;-46
2023/07/17 00:32:49;;;;;;;6.00;3.80;;;;;;;17.08;96.69;98710.56;4139066;28;20244;-46
2023/07/17 00:34:51;;;;;;;3.65;3.13;;;;;;;17.02;96.31;98706.16;4143924;28;20304;-45
2023/07/17 00:36:53;;;;;;;4.97;4.47;;;;;;;16.97;96.68;98708.16;4143687;28;20675;-46
2023/07/17 00:38:55;;;;;;;5.30;2.85;;;;;;;16.98;96.74;98714.22;4135324;28;20277;-46
2023/07/17 00:40:57;;;;;;;3.65;2.70;;;;;;;16.92;97.23;98709.03;4137460;28;20221;-45
2023/07/17 00:42:59;;;;;;;4.97;3.92;;;;;;;16.88;97.38;98707.13;4138191;28;20299;-46
2023/07/17 00:45:01;;;;;;;3.70;3.40;;;;;;;16.91;97.30;98707.38;4151831;28;20216;-47
2023/07/17 00:47:04;;;;;;;4.13;3.42;;;;;;;16.88;97.35;98704.34;4136785;28;21129;-45
2023/07/17 00:49:07;;;;;;;4.97;3.70;;;;;;;16.85;97.14;98711.28;4138137;28;20213;-46
2023/07/17 00:51:08;;;;;;;7.43;4.20;;;;;;;16.86;97.57;98712.94;4142800;28;20212;-45
2023/07/17 00:53:10;;;;;;;5.38;4.10;;;;;;;16.83;97.77;98710.72;4142434;28;20263;-45
2023/07/17 00:55:12;;;;;;;7.38;3.47;;;;;;;16.85;98.04;98711.28;4143598;28;20229;-46
2023/07/17 00:57:16;;;;;;;4.15;3.75;;;;;;;16.79;98.41;98706.88;4151404;28;20232;-45
2023/07/17 00:59:18;;;;;;;4.93;3.42;;;;;;;16.65;98.31;98711.38;4134590;28;20214;-45
2023/07/17 01:01:20;;;;;;;5.22;4.72;;;;;;;16.63;98.28;98719.13;4135425;28;20206;-45
2023/07/17 01:03:22;;;;;;;4.40;4.00;;;;;;;16.60;98.02;98714.16;4135474;28;20253;-45
2023/07/17 01:05:24;;;;;;;4.50;3.30;;;;;;;16.65;98.57;98716.91;4134957;28;20261;-46
2023/07/17 01:07:26;;;;;;;4.15;3.30;;;;;;;16.77;98.86;98713.81;4143801;28;20280;-46
2023/07/17 01:09:28;;;;;;;3.53;3.22;;;;;;;16.63;98.61;98710.81;4134986;28;20209;-46
2023/07/17 01:11:30;;;;;;;6.57;4.13;;;;;;;16.59;98.83;98712.53;4136546;28;20370;-46
2023/07/17 01:13:45;;;;;;;4.15;3.85;;;;;;;16.57;98.82;98719.44;4135026;28;20214;-46
2023/07/17 01:15:47;;;;;;;4.50;4.07;;;;;;;16.59;99.05;98718.03;4151820;28;20212;-46
2023/07/17 01:17:49;;;;;;;5.18;3.58;;;;;;;16.53;98.78;98713.66;4140235;28;20256;-46
2023/07/17 01:19:51;;;;;;;3.70;3.33;;;;;;;16.53;98.81;98719.19;4152370;28;20245;-45
2023/07/17 01:21:57;;;;;;;8.18;3.58;;;;;;;16.46;98.95;98717.81;4137734;28;20663;-45
2023/07/17 01:23:59;;;;;;;3.03;2.63;;;;;;;16.38;98.95;98722.00;4138537;28;20263;-47
2023/07/17 01:26:10;;;;;;;5.15;3.72;;;;;;;16.34;98.82;98726.41;4134674;28;20213;-45
2023/07/17 01:28:13;;;;;;;4.07;3.67;;;;;;;16.39;99.59;98729.19;4137881;28;20233;-46
2023/07/17 01:30:15;;;;;;;5.22;3.40;;;;;;;16.29;99.69;98722.84;4138567;28;20227;-46
2023/07/17 01:32:20;;;;;;;4.28;3.25;;;;;;;16.34;100.00;98720.88;4139061;28;20679;-46
2023/07/17 01:34:21;;;;;;;6.85;3.67;;;;;;;16.28;100.00;98726.69;4149561;28;20730;-46
2023/07/17 01:36:25;;;;;;;6.90;3.75;;;;;;;16.15;100.00;98722.59;4150591;28;20697;-46
2023/07/17 01:38:27;;;;;;;3.83;3.30;;;;;;;16.20;100.00;98725.34;4141758;28;20225;-46
2023/07/17 01:40:29;;;;;;;4.45;3.97;;;;;;;16.12;100.00;98723.16;4139163;28;20214;-46
2023/07/17 01:42:31;;;;;;;6.63;3.08;;;;;;;16.14;100.00;98728.41;4143100;28;20236;-45
2023/07/17 01:44:32;;;;;;;8.23;3.85;;;;;;;16.15;100.00;98730.06;4142602;28;20640;-45
2023/07/17 01:46:34;;;;;;;5.70;3.78;;;;;;;16.09;100.00;98732.00;4143014;28;20678;-46
2023/07/17 01:48:36;;;;;;;6.15;2.88;;;;;;;16.09;100.00;98733.94;4137335;28;20233;-46
2023/07/17 01:50:38;;;;;;;4.75;3.20;;;;;;;16.03;100.00;98730.34;4143284;28;20202;-45
2023/07/17 01:52:43;;;;;;;4.57;3.08;;;;;;;16.06;100.00;98728.97;4143145;28;20205;-45
2023/07/17 01:54:44;;;;;;;6.03;4.00;;;;;;;16.04;100.00;98729.25;4143206;28;20668;-45
2023/07/17 01:56:46;;;;;;;5.20;3.55;;;;;;;15.97;100.00;98734.22;4142297;28;20275;-46
2023/07/17 01:58:48;;;;;;;4.32;3.47;;;;;;;15.95;100.00;98728.16;4136921;28;20236;-45
2023/07/17 02:00:55;;;;;;;4.55;3.90;;;;;;;15.96;100.00;98740.06;4137339;28;20320;-46
2023/07/17 02:02:57;;;;;;;4.50;3.58;;;;;;;15.97;100.00;98731.47;4137609;28;20213;-46
2023/07/17 02:04:59;;;;;;;4.10;3.70;;;;;;;15.96;100.00;98740.88;4152568;28;20208;-45
2023/07/17 02:07:01;;;;;;;3.40;3.10;;;;;;;15.94;100.00;98740.31;4142641;28;20229;-46
2023/07/17 02:09:04;;;;;;;8.27;3.42;;;;;;;15.92;100.00;98739.78;4142766;28;20220;-45
2023/07/17 02:11:05;;;;;;;4.85;3.35;;;;;;;15.92;100.00;98733.44;4143054;28;20300;-45
2023/07/17 02:13:07;;;;;;;3.47;3.17;;;;;;;15.92;100.00;98739.78;4142456;28;20219;-47
2023/07/17 02:15:11;;;;;;;3.97;3.63;;;;;;;15.88;100.00;98733.16;4152032;28;20256;-45
2023/07/17 02:17:13;;;;;;;4.30;3.72;;;;;;;15.91;100.00;98738.09;4135916;28;20230;-46
2023/07/17 02:19:16;;;;;;;4.13;3.67;;;;;;;15.84;100.00;98742.28;4143065;28;20228;-45
2023/07/17 02:21:17;;;;;;;3.80;3.25;;;;;;;15.83;100.00;98733.16;4145313;28;20209;-46
2023/07/17 02:23:20;;;;;;;3.75;3.35;;;;;;;15.80;100.00;98736.50;4135435;28;20230;-45
2023/07/17 02:25:21;;;;;;;3.80;3.47;;;;;;;15.84;100.00;98736.75;4136206;28;20682;-45
2023/07/17 02:27:23;;;;;;;4.47;3.78;;;;;;;15.79;100.00;98751.41;4136615;28;20255;-45
2023/07/17 02:29:25;;;;;;;3.88;3.55;;;;;;;15.76;100.00;98745.59;4134904;28;20222;-46
2023/07/17 02:31:27;;;;;;;4.30;3.33;;;;;;;15.72;100.00;98745.34;4125926;28;20261;-47
2023/07/17 02:33:29;;;;;;;7.03;4.25;;;;;;;15.74;100.00;98747.78;4150634;28;20221;-45
2023/07/17 02:35:30;;;;;;;3.60;3.30;;;;;;;15.69;100.00;98750.56;4137592;28;20877;-45
2023/07/17 02:37:32;;;;;;;3.60;3.30;;;;;;;15.72;100.00;98753.59;4143824;28;20240;-45
2023/07/17 02:39:34;;;;;;;6.57;3.65;;;;;;;15.66;100.00;98751.97;4134990;28;20575;-45
2023/07/17 02:41:35;;;;;;;3.17;2.88;;;;;;;15.70;100.00;98755.81;4117251;28;20246;-46
2023/07/17 02:43:37;;;;;;;5.18;4.10;;;;;;;15.58;100.00;98758.03;4136359;28;20253;-45
2023/07/17 02:45:39;;;;;;;5.00;3.85;;;;;;;15.52;100.00;98756.38;4137129;28;20236;-46
2023/07/17 02:47:41;;;;;;;5.72;3.08;;;;;;;15.55;100.00;98755.81;4136026;28;20225;-45
2023/07/17 02:49:43;;;;;;;5.20;4.15;;;;;;;15.48;100.00;98757.19;4135373;28;20218;-45
2023/07/17 02:51:45;;;;;;;5.93;3.42;;;;;;;15.35;100.00;98760.50;4137198;28;20251;-46
2023/07/17 02:53:47;;;;;;;5.45;4.15;;;;;;;15.33;100.00;98757.19;4140165;28;20269;-46
2023/07/17 02:55:49;;;;;;;4.72;3.60;;;;;;;15.32;100.00;98753.63;4145220;28;20399;-46
2023/07/17 02:57:51;;;;;;;5.65;3.67;;;;;;;15.27;100.00;98759.09;4137758;28;20233;-46
2023/07/17 02:59:54;;;;;;;5.43;3.78;;;;;;;15.23;100.00;98757.97;4144319;28;20224;-46
2023/07/17 03:01:56;;;;;;;3.58;2.85;;;;;;;15.26;100.00;98757.44;4128765;28;20245;-45
2023/07/17 03:03:58;;;;;;;3.20;3.00;;;;;;;15.26;100.00;98762.94;4138101;28;20632;-45
2023/07/17 03:05:59;;;;;;;3.70;3.40;;;;;;;15.24;100.00;98770.66;4152646;28;20263;-47
2023/07/17 03:08:02;;;;;;;3.60;3.30;;;;;;;15.19;100.00;98772.56;4139433;28;20245;-47
2023/07/17 03:10:05;;;;;;;3.60;2.95;;;;;;;15.19;100.00;98767.91;4138613;28;20205;-46
2023/07/17 03:12:07;;;;;;;3.88;3.25;;;;;;;15.22;100.00;98778.38;4141013;28;20213;-45
2023/07/17 03:14:09;;;;;;;3.80;3.30;;;;;;;15.24;100.00;98781.66;4129536;28;20708;-45
2023/07/17 03:16:10;;;;;;;4.68;2.97;;;;;;;15.21;100.00;98786.91;4144585;28;20291;-46
2023/07/17 03:18:12;;;;;;;3.75;3.42;;;;;;;15.24;100.00;98781.66;4145627;28;20237;-45
2023/07/17 03:20:14;;;;;;;5.35;4.07;;;;;;;15.24;100.00;98787.19;4153746;28;20292;-46
2023/07/17 03:22:16;;;;;;;4.72;3.85;;;;;;;15.24;100.00;98787.19;4135987;28;20228;-45
2023/07/17 03:24:18;;;;;;;4.85;3.00;;;;;;;15.22;100.00;98789.41;4135955;28;20646;-46
2023/07/17 03:26:20;;;;;;;5.72;4.25;;;;;;;15.18;100.00;98788.31;4138841;28;20202;-46
2023/07/17 03:28:22;;;;;;;4.10;3.58;;;;;;;15.24;100.00;98787.19;4136649;28;20226;-46
2023/07/17 03:30:23;;;;;;;4.05;3.60;;;;;;;15.19;100.00;98784.44;4136279;28;20209;-46
2023/07/17 03:32:25;;;;;;;3.75;3.45;;;;;;;15.11;100.00;98782.19;4128848;28;20206;-46
2023/07/17 03:34:27;;;;;;;4.45;4.05;;;;;;;15.03;100.00;98779.97;4154224;28;20205;-46
2023/07/17 03:36:29;;;;;;;3.75;3.40;;;;;;;15.01;100.00;98778.59;4152795;28;20279;-46
2023/07/17 03:38:30;;;;;;;4.60;3.15;;;;;;;14.94;100.00;98786.28;4136870;28;20225;-46
2023/07/17 03:40:33;;;;;;;3.65;3.35;;;;;;;14.93;100.00;98779.97;4141581;28;20782;-46
2023/07/17 03:42:34;;;;;;;4.57;3.28;;;;;;;14.99;100.00;98789.91;4120396;28;20242;-46
2023/07/17 03:44:37;;;;;;;3.33;2.50;;;;;;;15.02;100.00;98794.06;4123084;28;20245;-45
2023/07/17 03:46:39;;;;;;;4.43;3.30;;;;;;;14.97;100.00;98788.53;4134745;28;20229;-46
2023/07/17 03:48:41;;;;;;;3.40;2.67;;;;;;;14.98;100.00;98788.25;4134640;28;20260;-47
2023/07/17 03:50:43;;;;;;;6.03;3.30;;;;;;;15.00;100.00;98791.56;4137612;28;20241;-45
2023/07/17 03:52:44;;;;;;;3.88;3.58;;;;;;;14.93;100.00;98785.47;4125304;28;20218;-45
2023/07/17 03:54:46;;;;;;;5.32;4.03;;;;;;;14.91;100.00;98793.16;4139792;28;20213;-46
2023/07/17 03:56:48;;;;;;;10.50;3.35;;;;;;;14.89;100.00;98795.38;4139881;28;20731;-45
2023/07/17 03:58:50;;;;;;;7.70;3.78;;;;;;;14.83;100.00;98787.38;4136677;28;20221;-46
2023/07/17 04:00:51;;;;;;;4.80;3.63;;;;;;;14.84;100.00;98792.59;4120398;28;20207;-46
2023/07/17 04:02:53;;;;;;;4.57;4.10;;;;;;;14.96;100.00;98795.13;4137660;28;20221;-45
2023/07/17 04:04:56;;;;;;;3.75;2.85;;;;;;;14.98;100.00;98802.03;4143169;28;20225;-45
2023/07/17 04:06:58;;;;;;;4.70;4.30;;;;;;;14.87;100.00;98799.50;4135284;28;20209;-46
2023/07/17 04:08:59;;;;;;;9.93;4.00;;;;;;;14.83;100.00;98796.47;4142899;28;20213;-45
2023/07/17 04:11:05;;;;;;;5.85;3.90;;;;;;;14.84;100.00;98803.63;4137374;28;20237;-46
2023/07/17 04:13:07;;;;;;;4.90;4.50;;;;;;;14.84;100.00;98800.88;4127775;28;20818;-45
2023/07/17 04:15:09;;;;;;;5.43;3.80;;;;;;;14.85;100.00;98805.31;4135620;28;20269;-46
2023/07/17 04:17:12;;;;;;;4.38;4.00;;;;;;;14.88;100.00;98799.25;4143222;28;20267;-46
2023/07/17 04:19:13;;;;;;;3.92;3.60;;;;;;;14.85;100.00;98808.06;4136839;28;20217;-45
2023/07/17 04:21:15;;;;;;;4.22;3.80;;;;;;;14.88;100.00;98810.25;4143406;28;20213;-46
2023/07/17 04:23:17;;;;;;;3.95;3.65;;;;;;;14.88;100.00;98815.78;4135972;28;20198;-46
2023/07/17 04:25:19;;;;;;;5.13;3.53;;;;;;;14.88;100.00;98815.78;4137182;28;20205;-46
2023/07/17 04:27:21;;;;;;;3.63;3.20;;;;;;;14.87;100.00;98825.13;4126875;28;20257;-46
2023/07/17 04:29:23;;;;;;;4.40;4.00;;;;;;;14.88;100.00;98823.19;4143241;28;20512;-46
2023/07/17 04:31:25;;;;;;;5.38;3.40;;;;;;;14.90;100.00;98829.28;4142169;28;20216;-46
2023/07/17 04:33:27;;;;;;;4.50;3.83;;;;;;;14.96;100.00;98822.69;4137875;28;20209;-47
2023/07/17 04:35:28;;;;;;;4.45;3.88;;;;;;;14.96;100.00;98818.00;4141216;28;20669;-46
2023/07/17 04:37:30;;;;;;;5.63;3.90;;;;;;;14.93;100.00;98818.56;4138535;28;20237;-47
2023/07/17 04:39:32;;;;;;;4.05;3.13;;;;;;;14.90;100.00;98835.59;4135039;28;20652;-46
2023/07/17 04:41:34;;;;;;;4.10;3.80;;;;;;;14.90;100.00;98830.09;4139127;28;20209;-46
2023/07/17 04:43:36;;;;;;;4.13;3.72;;;;;;;14.91;100.00;98831.75;4121899;28;20347;-46
2023/07/17 04:45:44;;;;;;;4.47;4.07;;;;;;;14.96;100.00;98823.50;4135284;28;20668;-46
2023/07/17 04:47:46;;;;;;;6.38;4.05;;;;;;;14.91;100.00;98837.25;4135158;28;20652;-45
2023/07/17 04:49:49;;;;;;;4.65;3.92;;;;;;;15.01;100.00;98830.97;4134922;28;20218;-45
2023/07/17 04:51:50;;;;;;;5.05;3.78;;;;;;;14.93;100.00;98835.09;4150601;28;20630;-46
2023/07/17 04:53:52;;;;;;;4.10;3.80;;;;;;;15.06;100.00;98829.06;4141645;28;20551;-45
2023/07/17 04:55:54;;;;;;;5.45;3.35;;;;;;;14.94;100.00;98825.72;4126477;28;20652;-46
2023/07/17 04:57:56;;;;;;;4.32;3.78;;;;;;;14.94;100.00;98835.91;4142683;28;20790;-46
2023/07/17 04:59:58;;;;;;;4.00;3.60;;;;;;;15.02;100.00;98832.66;4137106;28;20237;-46
2023/07/17 05:02:00;;;;;;;3.95;3.47;;;;;;;15.10;100.00;98835.69;4134673;28;20240;-46
2023/07/17 05:04:01;;;;;;;5.38;3.75;;;;;;;15.18;100.00;98837.94;4135085;28;20217;-46
2023/07/17 05:06:03;;;;;;;5.05;4.60;;;;;;;15.20;100.00;98838.47;4151956;28;20784;-46
2023/07/17 05:08:05;;;;;;;5.50;3.60;;;;;;;15.09;100.00;98827.69;4123876;28;20234;-45
2023/07/17 05:10:10;;;;;;;6.75;4.05;;;;;;;15.20;100.00;98840.41;4152033;28;20213;-46
2023/07/17 05:12:12;;;;;;;4.10;3.55;;;;;;;15.41;100.00;98833.84;4150034;28;20215;-45
2023/07/17 05:14:13;;;;;;;4.68;4.13;;;;;;;15.38;100.00;98835.25;4148525;28;20408;-45
2023/07/17 05:16:15;;;;;;;6.53;3.97;;;;;;;15.45;100.00;98838.56;4121357;28;20222;-45
2023/07/17 05:18:18;;;;;;;13.55;3.88;;;;;;;15.58;100.00;98842.72;4135140;28;20229;-57
2023/07/17 05:20:20;;;;;;;4.57;4.10;;;;;;;15.62;100.00;98843.84;4135456;28;20244;-46
2023/07/17 05:22:22;;;;;;;4.18;3.75;;;;;;;15.72;100.00;98855.72;4137527;28;20674;-46
2023/07/17 05:24:24;;;;;;;4.20;3.80;;;;;;;15.83;100.00;98868.38;4151237;28;20200;-47
2023/07/17 05:26:25;;;;;;;6.47;3.47;;;;;;;15.85;100.00;98865.38;4133616;28;21014;-46
2023/07/17 05:28:28;;;;;;;4.05;3.58;;;;;;;15.84;100.00;98853.47;4134020;28;20230;-46
2023/07/17 05:30:34;;;;;;;5.18;4.32;;;;;;;15.88;100.00;98854.59;4138567;28;20205;-46
2023/07/17 05:32:36;;;;;;;4.80;4.25;;;;;;;15.90;100.00;98855.16;4151034;28;20285;-46
2023/07/17 05:34:38;;;;;;;6.60;4.10;;;;;;;15.81;100.00;98843.00;4140709;28;20650;-46
2023/07/17 05:36:39;;;;;;;5.75;4.65;;;;;;;15.89;100.00;98855.44;4137329;28;20236;-46
2023/07/17 05:38:41;;;;;;;5.05;4.45;;;;;;;16.11;100.00;98855.97;4149725;28;20232;-46
2023/07/17 05:40:44;;;;;;;4.75;4.07;;;;;;;16.34;100.00;98864.50;4123440;28;20210;-46
2023/07/17 05:42:46;;;;;;;7.38;4.90;;;;;;;16.44;100.00;98861.75;4135711;28;20283;-46
2023/07/17 05:44:48;;;;;;;5.55;4.18;;;;;;;16.47;100.00;98875.03;4135608;28;20292;-46
2023/07/17 05:46:50;;;;;;;5.47;4.97;;;;;;;16.69;100.00;98871.94;4134749;28;20205;-46
2023/07/17 05:48:52;;;;;;;5.63;4.50;;;;;;;16.78;100.00;98871.09;4134282;28;20691;-46
2023/07/17 05:50:54;;;;;;;5.13;4.18;;;;;;;16.79;100.00;98867.22;4122547;28;20214;-46
2023/07/17 05:52:56;;;;;;;5.55;3.47;;;;;;;16.82;100.00;98883.22;4136635;28;20672;-46
2023/07/17 05:54:58;;;;;;;5.65;4.00;;;;;;;16.99;100.00;98878.19;4140531;28;20224;-46
2023/07/17 05:57:02;;;;;;;3.45;3.17;;;;;;;17.05;100.00;98877.06;4124940;28;20324;-46
2023/07/17 05:59:04;;;;;;;4.28;3.80;;;;;;;17.04;100.00;98872.63;4135769;28;20214;-46
2023/07/17 06:01:09;;;;;;;4.10;3.20;;;;;;;17.12;100.00;98874.81;4139171;28;20209;-46
2023/07/17 06:03:12;;;;;;;5.20;4.70;;;;;;;17.16;100.00;98867.59;4135395;28;20258;-47
2023/07/17 06:05:14;;;;;;;5.28;4.28;;;;;;;17.32;100.00;98880.25;4136559;28;20308;-46
2023/07/17 06:07:16;;;;;;;5.28;4.35;;;;;;;17.24;100.00;98880.81;4151360;28;20208;-47
2023/07/17 06:09:19;;;;;;;5.97;4.13;;;;;;;17.14;100.00;98870.66;4141584;28;20280;-46
2023/07/17 06:11:21;;;;;;;5.93;5.32;;;;;;;17.19;100.00;98878.91;4134022;28;20206;-46
2023/07/17 06:13:23;;;;;;;4.93;4.53;;;;;;;17.16;100.00;98868.44;4142212;28;20210;-46
2023/07/17 06:15:25;;;;;;;5.55;3.92;;;;;;;17.25;100.00;98876.97;4151556;28;20209;-46
2023/07/17 06:17:29;;;;;;;5.50;4.50;;;;;;;17.50;100.00;98874.91;4141462;28;20702;-45
2023/07/17 06:19:31;;;;;;;7.80;4.88;;;;;;;17.55;100.00;98874.06;4149270;28;20255;-46
2023/07/17 06:21:33;;;;;;;11.77;4.57;;;;;;;17.51;100.00;98870.22;4134446;28;20213;-46
2023/07/17 06:23:35;;;;;;;5.53;5.03;;;;;;;17.51;100.00;98875.75;4148664;28;20287;-45
2023/07/17 06:25:38;;;;;;;6.82;5.38;;;;;;;17.73;100.00;98878.94;4122952;28;20234;-46
2023/07/17 06:27:40;;;;;;;6.40;4.40;;;;;;;17.87;100.00;98872.47;4137580;28;20327;-46
2023/07/17 06:29:42;;;;;;;9.45;5.40;;;;;;;17.88;100.00;98881.59;4135944;28;21101;-46
2023/07/17 06:31:47;;;;;;;5.22;4.80;;;;;;;18.20;100.00;98884.66;4155188;28;20204;-46
2023/07/17 06:33:49;;;;;;;8.18;4.35;;;;;;;18.53;100.00;98894.91;4138310;28;20280;-46
2023/07/17 06:35:51;;;;;;;7.13;4.07;;;;;;;18.93;100.00;98894.50;4142596;28;20228;-46
2023/07/17 06:37:53;;;;;;;7.43;3.60;;;;;;;19.14;96.00;98890.34;4138139;28;20233;-46
2023/07/17 06:39:55;;;;;;;5.47;3.78;;;;;;;19.07;94.17;98895.44;4146576;28;20205;-45
2023/07/17 06:41:57;;;;;;;3.95;3.65;;;;;;;19.13;95.34;98888.69;4138798;28;20253;-46
2023/07/17 06:43:59;;;;;;;5.05;4.40;;;;;;;19.19;94.97;98887.53;4144501;28;20228;-45
2023/07/17 06:46:01;;;;;;;4.07;3.50;;;;;;;19.22;92.80;98885.00;4141950;28;20692;-46
2023/07/17 06:48:09;;;;;;;6.18;4.05;;;;;;;19.62;91.87;98880.84;4130495;28;20230;-46
2023/07/17 06:50:19;;;;;;;6.50;2.95;;;;;;;19.92;87.11;98892.34;4153341;28;20535;-46
2023/07/17 06:52:21;;;;;;;5.28;3.55;;;;;;;20.14;85.52;98892.59;4152255;28;20705;-45
2023/07/17 06:54:23;;;;;;;4.18;3.35;;;;;;;20.15;83.29;98890.63;4145367;28;20209;-45
2023/07/17 06:56:29;;;;;;;6.63;4.03;;;;;;;20.07;84.91;98897.72;4139866;28;20244;-45
2023/07/17 06:58:51;;;;;;;6.60;3.47;;;;;;;19.80;85.14;98899.47;4139274;28;20294;-45
2023/07/17 07:00:59;;;;;;;8.10;4.80;;;;;;;19.78;81.58;98901.75;4139370;28;20729;-45
2023/07/17 07:03:11;;;;;;;8.20;3.53;;;;;;;19.73;82.75;98899.03;4139308;28;20202;-46
2023/07/17 07:05:13;;;;;;;6.15;3.60;;;;;;;19.78;81.77;98901.75;4138738;28;20330;-45
2023/07/17 07:07:16;;;;;;;4.88;4.00;;;;;;;19.82;82.31;98902.78;4140661;28;20303;-45
2023/07/17 07:09:20;;;;;;;5.70;3.63;;;;;;;20.10;80.97;98905.44;4144412;28;20209;-45
2023/07/17 07:11:22;;;;;;;6.93;3.55;;;;;;;20.22;80.57;98899.41;4122001;28;20221;-46
2023/07/17 07:13:24;;;;;;;5.35;3.97;;;;;;;20.40;82.21;98892.97;4152271;28;20197;-45
2023/07/17 07:15:40;;;;;;;5.47;3.60;;;;;;;19.94;78.85;98900.38;4136428;28;20875;-46
2023/07/17 07:17:41;;;;;;;7.60;4.15;;;;;;;20.08;81.72;98913.25;4155440;28;20236;-45
2023/07/17 07:19:44;;;;;;;4.30;3.10;;;;;;;20.28;80.81;98924.03;4155073;28;21096;-45
2023/07/17 07:21:46;;;;;;;6.53;3.65;;;;;;;20.46;81.76;98925.97;4139021;28;20220;-45
2023/07/17 07:23:48;;;;;;;4.70;3.75;;;;;;;20.84;81.14;98915.56;4154137;28;20698;-46
2023/07/17 07:25:56;;;;;;;7.35;3.58;;;;;;;20.76;80.33;98919.84;4139657;28;20625;-45
2023/07/17 07:28:01;;;;;;;4.70;3.22;;;;;;;20.44;79.58;98927.41;4144237;28;20235;-46
2023/07/17 07:30:06;;;;;;;6.75;4.40;;;;;;;20.25;79.33;98923.81;4155995;28;20299;-46
2023/07/17 07:32:08;;;;;;;4.80;3.35;;;;;;;20.36;78.59;98922.50;4137221;28;20210;-47
2023/07/17 07:34:12;;;;;;;6.45;4.10;;;;;;;20.23;78.19;98923.28;4142776;28;20671;-46
2023/07/17 07:36:14;;;;;;;4.63;3.65;;;;;;;20.21;77.20;98922.75;4141248;28;20205;-46
2023/07/17 07:38:18;;;;;;;10.25;3.53;;;;;;;20.63;77.62;98925.38;4136898;28;20235;-46
2023/07/17 07:40:20;;;;;;;7.15;3.75;;;;;;;21.03;76.96;98924.66;4142135;28;20239;-46
2023/07/17 07:42:22;;;;;;;5.30;3.50;;;;;;;21.25;74.06;98928.38;4140179;28;20233;-46
2023/07/17 07:44:24;;;;;;;5.57;3.50;;;;;;;21.06;74.83;98924.91;4141303;28;20209;-45
2023/07/17 07:46:29;;;;;;;6.60;3.60;;;;;;;20.93;74.88;98936.00;4151432;28;20311;-46
2023/07/17 07:48:32;;;;;;;5.55;2.85;;;;;;;20.77;76.57;98935.41;4132761;28;20225;-45
2023/07/17 07:50:40;;;;;;;6.25;3.83;;;;;;;20.62;77.93;98941.25;4138916;28;20225;-45
2023/07/17 07:52:44;;;;;;;6.05;3.55;;;;;;;20.88;78.89;98934.13;4137573;28;20211;-45
2023/07/17 07:54:46;;;;;;;5.82;3.72;;;;;;;21.08;77.79;98935.69;4143238;28;21143;-45
2023/07/17 07:56:48;;;;;;;4.78;4.13;;;;;;;21.21;79.09;98937.66;4143607;28;20200;-46
2023/07/17 07:59:08;;;;;;;4.63;2.75;;;;;;;20.82;79.22;98934.50;4134987;28;20317;-46
2023/07/17 08:01:39;;;;;;;7.05;3.67;;;;;;;21.04;77.96;98940.25;4138445;28;20259;-46
2023/07/17 08:03:56;;;;;;;4.55;3.53;;;;;;;21.31;78.02;98937.50;4128326;28;20358;-46
2023/07/17 08:05:58;;;;;;;7.53;3.55;;;;;;;21.34;77.16;98936.84;4126278;28;20225;-46
2023/07/17 08:08:06;;;;;;;4.03;3.13;;;;;;;21.94;75.28;98946.72;4136925;28;20232;-46
2023/07/17 08:10:11;;;;;;;3.97;2.95;;;;;;;22.18;73.54;98942.53;4151716;28;20719;-46
2023/07/17 08:12:17;;;;;;;4.65;3.30;;;;;;;22.53;72.30;98944.50;4138383;28;20652;-46
2023/07/17 08:14:21;;;;;;;7.25;3.35;;;;;;;22.62;70.98;98945.38;4137003;28;20212;-45
2023/07/17 08:16:30;;;;;;;5.95;2.67;;;;;;;22.61;68.78;98945.69;4137228;28;20205;-45
2023/07/17 08:18:32;;;;;;;12.57;3.10;;;;;;;22.86;69.35;98942.25;4144563;28;20243;-46
2023/07/17 08:20:45;;;;;;;4.13;2.47;;;;;;;23.20;68.39;98948.03;4138042;28;20709;-44
2023/07/17 08:22:54;;;;;;;5.90;3.17;;;;;;;22.97;65.15;98949.22;4135767;28;20202;-46
2023/07/17 08:24:57;;;;;;;6.60;3.53;;;;;;;22.87;65.22;98949.47;4144866;28;20690;-45
2023/07/17 08:27:00;;;;;;;16.90;3.05;;;;;;;23.15;64.53;98950.94;4128850;28;20213;-45
2023/07/17 08:29:06;;;;;;;7.38;3.10;;;;;;;23.04;62.12;98944.00;4140651;28;20674;-45
2023/07/17 08:31:12;;;;;;;6.38;2.83;;;;;;;23.57;63.07;98950.34;4135907;28;21313;-45
2023/07/17 08:33:20;;;;;;;4.47;2.03;;;;;;;22.83;61.54;98943.72;4137194;28;20710;-46
2023/07/17 08:35:22;;;;;;;4.95;3.00;;;;;;;22.38;64.57;98935.66;4139152;28;20204;-45
2023/07/17 08:37:24;;;;;;;4.45;2.80;;;;;;;22.91;64.84;98945.72;4143248;28;20233;-45
2023/07/17 08:39:26;;;;;;;9.10;3.00;;;;;;;23.29;63.57;98951.69;4141223;28;20219;-45
2023/07/17 08:41:28;;;;;;;6.70;2.83;;;;;;;23.39;61.31;98957.84;4150353;28;20290;-47
2023/07/17 08:43:30;;;;;;;4.82;2.47;;;;;;;23.59;61.51;98951.69;4136047;28;20208;-46
2023/07/17 08:45:35;;;;;;;4.18;2.95;;;;;;;24.04;62.14;98948.34;4137297;28;20264;-45
2023/07/17 08:47:37;;;;;;;5.17;3.10;;;;;;;23.98;59.38;98945.22;4137816;28;20520;-44
2023/07/17 08:49:39;;;;;;;6.97;2.72;;;;;;;23.88;59.36;98951.94;4134024;28;20515;-45
2023/07/17 08:51:41;;;;;;;6.15;2.92;;;;;;;24.10;61.04;98947.03;4139261;28;20666;-45
2023/07/17 08:53:46;;;;;;;3.90;2.80;;;;;;;24.05;58.02;98950.00;4138654;28;20205;-45
2023/07/17 08:55:48;;;;;;;5.05;2.28;;;;;;;23.96;58.09;98947.53;4132096;28;20283;-45
2023/07/17 08:57:52;;;;;;;4.03;2.65;;;;;;;24.39;58.26;98938.81;4148342;28;20273;-45
2023/07/17 08:59:54;;;;;;;4.13;2.95;;;;;;;24.57;58.45;98945.25;4140154;28;20203;-45
2023/07/17 09:01:57;;;;;;;3.97;2.30;;;;;;;24.56;57.21;98933.25;4120455;28;20261;-47
2023/07/17 09:04:18;;;;;;;5.15;3.00;;;;;;;24.41;57.67;98946.88;4138013;28;20618;-46
2023/07/17 09:06:29;;;;;;;3.63;2.25;;;;;;;24.29;55.44;98950.34;4134724;28;20312;-46
2023/07/17 09:08:39;;;;;;;2.83;2.10;;;;;;;24.28;55.44;98937.53;4128433;28;20308;-46
2023/07/17 09:10:41;;;;;;;5.38;2.47;;;;;;;24.47;53.76;98939.97;4134181;28;20611;-45
2023/07/17 09:12:49;;;;;;;4.38;2.35;;;;;;;24.46;54.22;98936.34;4134997;28;20212;-45
2023/07/17 09:14:51;;;;;;;4.80;2.38;;;;;;;25.06;55.63;98942.69;4151295;28;20199;-45
2023/07/17 09:17:04;;;;;;;4.55;2.25;;;;;;;24.91;53.23;98940.44;4134633;28;20267;-46
2023/07/17 09:19:06;;;;;;;3.95;2.40;;;;;;;24.33;53.24;98942.13;4138351;28;20220;-46
2023/07/17 09:21:10;;;;;;;3.28;2.20;;;;;;;24.01;52.52;98948.97;4151169;28;20216;-45
2023/07/17 09:23:12;;;;;;;4.53;2.20;;;;;;;23.73;52.89;98945.94;4131487;28;20585;-46
2023/07/17 09:25:15;;;;;;;4.35;2.45;;;;;;;24.26;53.44;98951.00;4134455;28;20577;-45
2023/07/17 09:27:17;;;;;;;4.13;2.00;;;;;;;24.72;52.09;98939.97;4135121;28;20547;-46
2023/07/17 09:29:25;;;;;;;3.42;1.75;;;;;;;25.18;52.13;98940.03;4118570;28;20310;-46
2023/07/17 09:31:29;;;;;;;3.35;2.10;;;;;;;24.85;49.81;98936.16;4135650;28;20209;-45
2023/07/17 09:33:36;;;;;;;8.45;2.25;;;;;;;24.09;52.00;98931.41;4134253;28;20328;-46
2023/07/17 09:35:38;;;;;;;2.55;1.65;;;;;;;24.81;51.88;98940.78;4135780;28;20211;-46